Everett, Ohio
Current Conditions -  °F | °C
As of 5:02 AM on Monday 26 Jan 2015 (Local Time) from KAKR Reporting Station
Light Snow Light Snow  
Wind Chill: 10°   Ceiling: 4300
Heat Index: 20°   Visibility: 4mi
Dew Point: 15°   Wind: 8mph
Humidity: 81%   Direction: 30°NNE
Pressure: 29.75"   Gusts: NA
Location:  41.2321°N, 81.5556°W
Report Text: KAKR 261002Z AUTO 03007KT 4SM -SN FEW029 FEW034 OVC043 M07/M09 A2975 RMK AO2 P0000 T10671094 $
Loading
Personal Weather Stations






























Interactive Weather Map New forecast layout! Learn more

10-Day Weather Forecast

Advertisements
Track Severe Weather on mobile